Fairfax, IA (52228)

7:22 AM CDT on September 30, 2014 (GMT -0500)
Stoney Point Heights | Change Station
CLOSE
Current Station
Personal Weather Station
Location: Cedar Rapids, IA
Elevation: 833 ft
Nearby Weather Stations

Elev 833 ft 41.95 °N, 91.76 °W | Updated 8 seconds ago

Overcast
Overcast
54.5 °F
Feels Like 54.5 °F
N
0.0
Wind Variable Wind from East
Gusts 0.0 mph

Today
High -- | Low -- °F
--% Chance of Precip.
Yesterday
High -- | Low -- °F
Precip. -- in
7:03 AM 6:50 PM
Waxing Crescent, 36% visible
Pressure 30.00 in
Visibility 10.0 miles
Clouds Overcast 1000 ft
Dew Point 33 °F
Humidity 44%
Rainfall 0.00 in
Snow Depth Not available.
UV 0 out of 12
Pollen 3.60 out of 12
Air Quality Not available.
Flu Activity Not available.
METAR KCID 301152Z 07012KT 10SM OVC010 12/10 A3000

More Conditions Fewer Conditions

Pressure 30.00 in
Visibility 10.0 miles
Clouds Overcast 1000 ft
Dew Point 33 °F
Humidity 44%
Rainfall 0.00 in
Snow Depth Not available.
UV 0 out of 12
Pollen 3.60 out of 12
Air Quality Not available.
Flu Activity Not available.
METAR KCID 301152Z 07012KT 10SM OVC010 12/10 A3000

More Conditions Fewer Conditions

10-Day Weather Forecast

Almanac

Astronomy

Sep. 30, 2014 Rise Set
Actual Time 7:03 AM CDT 6:50 PM CDT
Civil Twilight 6:35 AM CDT 7:18 PM CDT
Nautical Twilight 6:02 AM CDT 7:50 PM CDT
Astronomical Twilight 5:30 AM CDT 8:23 PM CDT
Moon 1:15 PM CDT 11:16 PM CDT
Length of Visible Light 12h 42m
Length of Day
11h 47m
Tomorrow will be 2m 47s shorter.
Waxing Crescent, 36% of the Moon is Illuminated
Today
Waxing Crescent
Oct 1
First Quarter
Oct 8
Full
Oct 15
Last Quarter
Oct 23
New

Today's Extremes

State Highs State Lows

Community

WunderPhotos

Upload Photos

1,757,621 photos uploaded!

Nearby

Snow Depth

Station Depth Elevation
No new snow has been reported.

Earthquake Activity

City Distance Mag. Time & Date
No recent earthquake activity has been reported nearby.
Minimum magnitude displayed is 2.5.

Coastal Water Temperatures

Place Temperature
No Stations Reporting

Nearby Weather Stations